createdAt,value
2018-09-18T00:01:27.751Z,64.32
2018-09-18T00:03:56.262Z,61.39
2018-09-18T00:06:24.825Z,59.88
2018-09-18T00:08:53.325Z,60.32
2018-09-18T00:11:21.818Z,63.69
2018-09-18T00:13:50.310Z,64.02
2018-09-18T00:16:18.821Z,62.64
2018-09-18T00:18:47.483Z,60.45
2018-09-18T00:21:15.957Z,62.05
2018-09-18T00:23:44.476Z,63.53
2018-09-18T00:26:12.975Z,61.15
2018-09-18T00:28:41.521Z,61.07
2018-09-18T00:31:10.803Z,61.08
2018-09-18T00:33:39.303Z,65.31
2018-09-18T00:36:07.854Z,62.84
2018-09-18T00:38:36.320Z,63.05
2018-09-18T00:41:04.799Z,65.53
2018-09-18T00:43:33.274Z,63.53
2018-09-18T00:46:01.770Z,64.60
2018-09-18T00:48:30.293Z,66.55
2018-09-18T00:50:58.835Z,66.77
2018-09-18T00:53:33.867Z,65.50
2018-09-18T00:56:02.399Z,66.72
2018-09-18T00:58:30.885Z,67.10
2018-09-18T01:00:59.391Z,69.02
2018-09-18T01:03:27.862Z,67.80
2018-09-18T01:05:56.429Z,65.76
2018-09-18T01:08:24.915Z,67.32
2018-09-18T01:10:53.425Z,61.00
2018-09-18T01:13:21.965Z,62.22
2018-09-18T01:15:50.517Z,60.79
2018-09-18T01:18:18.986Z,64.40
2018-09-18T01:20:47.513Z,62.79
2018-09-18T01:23:16.024Z,64.01
2018-09-18T01:25:44.833Z,60.79
2018-09-18T01:28:13.321Z,62.12
2018-09-18T01:30:41.781Z,65.03
2018-09-18T01:33:10.293Z,60.45
2018-09-18T01:35:38.794Z,63.01
2018-09-18T01:38:07.347Z,59.47
2018-09-18T01:40:35.847Z,63.00
2018-09-18T01:43:04.352Z,59.80
2018-09-18T01:45:33.119Z,60.51
2018-09-18T01:48:01.597Z,65.16
2018-09-18T01:50:30.092Z,63.17
2018-09-18T01:52:58.606Z,64.69
2018-09-18T01:55:27.214Z,64.72
2018-09-18T01:57:55.715Z,66.43
2018-09-18T02:00:24.264Z,64.67
2018-09-18T02:02:52.805Z,60.09
2018-09-18T02:05:21.578Z,59.54
2018-09-18T02:07:50.095Z,65.12
2018-09-18T02:10:18.579Z,64.31
2018-09-18T02:12:47.084Z,61.44
2018-09-18T02:15:15.615Z,60.79
2018-09-18T02:17:44.118Z,63.92
2018-09-18T02:20:12.638Z,64.80
2018-09-18T02:22:41.207Z,63.25
2018-09-18T02:25:09.700Z,63.20
2018-09-18T02:27:38.202Z,61.63
2018-09-18T02:30:06.728Z,60.91
2018-09-18T02:32:35.245Z,62.32
2018-09-18T02:35:03.872Z,66.56
2018-09-18T02:37:32.462Z,62.65
2018-09-18T02:40:01.061Z,62.43
2018-09-18T02:42:29.682Z,62.12
2018-09-18T02:44:58.187Z,62.67
2018-09-18T02:47:26.704Z,62.46
2018-09-18T02:49:55.349Z,63.98
2018-09-18T02:52:23.837Z,63.51
2018-09-18T02:54:52.363Z,63.63
2018-09-18T02:57:20.868Z,62.96
2018-09-18T02:59:49.385Z,64.07
2018-09-18T03:02:17.894Z,65.15
2018-09-18T03:04:46.393Z,64.18
2018-09-18T03:07:14.938Z,64.50
2018-09-18T03:09:43.519Z,65.80
2018-09-18T03:12:12.051Z,64.58
2018-09-18T03:14:40.550Z,64.61
2018-09-18T03:17:09.083Z,64.58
2018-09-18T03:19:37.610Z,64.51
2018-09-18T03:22:06.088Z,64.93
2018-09-18T03:24:34.569Z,66.27
2018-09-18T03:27:03.052Z,68.27
2018-09-18T03:29:31.530Z,65.35
2018-09-18T03:32:00.039Z,69.48
2018-09-18T03:34:28.586Z,66.07
2018-09-18T03:37:03.610Z,66.85
2018-09-18T03:39:32.112Z,66.69
2018-09-18T03:42:01.374Z,65.99
2018-09-18T03:44:30.742Z,66.21
2018-09-18T03:46:59.299Z,65.05
2018-09-18T03:49:27.978Z,64.66
2018-09-18T03:51:56.522Z,64.22
2018-09-18T03:54:24.997Z,62.71
2018-09-18T03:56:53.509Z,61.98
2018-09-18T03:59:21.993Z,62.81
2018-09-18T04:01:50.533Z,64.95
2018-09-18T04:04:19.013Z,63.04
2018-09-18T04:06:47.502Z,62.55
2018-09-18T04:09:15.979Z,63.69
2018-09-18T04:11:44.502Z,62.20
2018-09-18T04:14:13.006Z,61.43
2018-09-18T04:16:41.546Z,61.35
2018-09-18T04:19:10.013Z,60.99
2018-09-18T04:21:41.311Z,61.60
2018-09-18T04:24:09.825Z,61.99
2018-09-18T04:26:39.639Z,61.70
2018-09-18T04:29:09.006Z,62.05
2018-09-18T04:31:39.393Z,61.78
2018-09-18T04:34:07.940Z,61.57
2018-09-18T04:36:36.537Z,61.66
2018-09-18T04:39:08.378Z,61.25
2018-09-18T04:41:36.850Z,60.35
2018-09-18T04:44:05.350Z,61.07
2018-09-18T04:46:33.901Z,60.34
2018-09-18T04:49:02.416Z,60.54
2018-09-18T04:51:31.042Z,61.38
2018-09-18T04:53:59.663Z,60.64
2018-09-18T04:56:28.585Z,60.70
2018-09-18T04:58:57.054Z,61.38
2018-09-18T05:01:26.658Z,61.92
2018-09-18T05:03:55.349Z,61.83
2018-09-18T05:06:23.902Z,62.04
2018-09-18T05:08:52.383Z,61.46
2018-09-18T05:11:21.429Z,61.30
2018-09-18T05:13:50.029Z,61.22
2018-09-18T05:16:18.574Z,61.30
2018-09-18T05:18:47.143Z,60.85
2018-09-18T05:21:15.764Z,60.79
2018-09-18T05:23:44.411Z,60.81
2018-09-18T05:26:13.030Z,61.48
2018-09-18T05:28:41.585Z,61.55
2018-09-18T05:31:10.815Z,61.67
2018-09-18T05:33:39.511Z,60.97
2018-09-18T05:36:08.090Z,61.09
2018-09-18T05:38:36.706Z,60.66
2018-09-18T05:41:05.442Z,61.12
2018-09-18T05:43:34.374Z,61.30
2018-09-18T05:46:02.941Z,61.57
2018-09-18T05:48:33.721Z,61.10
2018-09-18T05:51:02.328Z,60.64
2018-09-18T05:53:30.908Z,61.58
2018-09-18T05:55:59.624Z,61.23
2018-09-18T05:58:28.589Z,60.68
2018-09-18T06:03:24.623Z,61.58
2018-09-18T06:05:53.174Z,60.30
2018-09-18T06:08:21.720Z,60.20
2018-09-18T06:10:50.279Z,59.91
2018-09-18T06:13:18.858Z,59.68
2018-09-18T06:15:47.415Z,59.84
2018-09-18T06:18:15.963Z,59.48
2018-09-18T06:20:44.717Z,59.45
2018-09-18T06:23:13.277Z,58.97
2018-09-18T06:25:41.786Z,58.43
2018-09-18T06:28:10.347Z,58.52
2018-09-18T06:30:38.963Z,58.57
2018-09-18T06:33:07.496Z,58.19
2018-09-18T06:35:36.034Z,57.60
2018-09-18T06:38:04.588Z,57.44
2018-09-18T06:40:33.085Z,57.07
2018-09-18T06:43:01.618Z,57.61
2018-09-18T06:45:30.166Z,58.20
2018-09-18T06:47:58.742Z,58.31
2018-09-18T06:50:27.217Z,58.28
2018-09-18T06:52:55.751Z,57.20
2018-09-18T06:55:24.303Z,57.70
2018-09-18T06:57:52.915Z,57.55
2018-09-18T07:00:21.462Z,57.11
2018-09-18T07:02:49.972Z,57.70
2018-09-18T07:05:18.539Z,56.95
2018-09-18T07:07:47.066Z,56.77
2018-09-18T07:10:15.558Z,56.71
2018-09-18T07:12:44.066Z,57.05
2018-09-18T07:15:12.614Z,56.32
2018-09-18T07:17:41.191Z,56.16
2018-09-18T07:20:09.792Z,56.04
2018-09-18T07:22:38.422Z,55.41
2018-09-18T07:25:07.021Z,55.69
2018-09-18T07:27:35.727Z,55.02
2018-09-18T07:30:04.832Z,55.47
2018-09-18T07:32:33.314Z,53.67
2018-09-18T07:35:01.860Z,54.20
2018-09-18T07:37:30.382Z,53.39
2018-09-18T07:39:58.874Z,53.84
2018-09-18T07:42:27.440Z,54.25
2018-09-18T07:44:56.945Z,53.39
2018-09-18T07:47:25.527Z,53.44
2018-09-18T07:49:54.117Z,52.88
2018-09-18T07:52:22.801Z,53.01
2018-09-18T07:54:51.271Z,51.74
2018-09-18T07:57:19.803Z,51.84
2018-09-18T07:59:48.378Z,52.33
2018-09-18T08:02:16.857Z,51.65
2018-09-18T08:04:45.427Z,51.10
2018-09-18T08:07:13.994Z,51.70
2018-09-18T08:09:42.528Z,50.96
2018-09-18T08:12:11.159Z,49.93
2018-09-18T08:14:39.615Z,50.56
2018-09-18T08:17:08.143Z,50.22
2018-09-18T08:19:36.868Z,49.55
2018-09-18T08:22:05.332Z,49.39
2018-09-18T08:24:33.870Z,48.64
2018-09-18T08:27:02.366Z,49.05
2018-09-18T08:29:31.124Z,47.67
2018-09-18T08:31:59.663Z,48.62
2018-09-18T08:34:28.207Z,48.77
2018-09-18T08:36:56.977Z,48.41
2018-09-18T08:39:25.601Z,48.03
2018-09-18T08:41:54.150Z,48.37
2018-09-18T08:44:22.676Z,47.67
2018-09-18T08:46:51.288Z,46.54
2018-09-18T08:49:19.856Z,46.15
2018-09-18T08:51:48.400Z,46.96
2018-09-18T08:54:16.931Z,45.38
2018-09-18T08:56:45.501Z,46.18
2018-09-18T08:59:14.100Z,46.32
2018-09-18T09:01:42.653Z,45.54
2018-09-18T09:04:11.267Z,45.84
2018-09-18T09:06:39.855Z,46.18
2018-09-18T09:09:11.351Z,45.40
2018-09-18T09:11:39.875Z,45.78
2018-09-18T09:14:08.699Z,46.17
2018-09-18T09:16:37.247Z,45.81
2018-09-18T09:19:05.877Z,45.09
2018-09-18T09:21:34.499Z,46.34
2018-09-18T09:24:03.065Z,46.01
2018-09-18T09:26:31.613Z,45.46
2018-09-18T09:29:00.214Z,45.64
2018-09-18T09:31:28.778Z,45.25
2018-09-18T09:33:57.310Z,45.36
2018-09-18T09:36:25.949Z,44.97
2018-09-18T09:38:54.660Z,44.74
2018-09-18T09:41:23.031Z,44.22
2018-09-18T09:43:51.637Z,44.23
2018-09-18T09:46:20.131Z,44.98
2018-09-18T09:48:48.638Z,44.74
2018-09-18T09:51:17.279Z,44.94
2018-09-18T09:53:46.920Z,44.47
2018-09-18T09:56:15.441Z,45.41
2018-09-18T09:58:43.954Z,44.77
2018-09-18T10:01:17.838Z,44.76
2018-09-18T10:03:46.369Z,44.96
2018-09-18T10:06:14.941Z,45.50
2018-09-18T10:08:44.155Z,44.83
2018-09-18T10:11:12.723Z,46.23
2018-09-18T10:13:41.240Z,45.15
2018-09-18T10:16:09.812Z,45.65
2018-09-18T10:18:38.366Z,45.16
2018-09-18T10:21:06.944Z,45.29
2018-09-18T10:23:35.462Z,45.09
2018-09-18T10:26:04.184Z,45.33
2018-09-18T10:28:32.655Z,44.55
2018-09-18T10:31:01.245Z,45.41
2018-09-18T10:33:29.757Z,44.92
2018-09-18T10:35:58.327Z,44.76
2018-09-18T10:38:26.827Z,45.79
2018-09-18T10:40:55.486Z,45.94
2018-09-18T10:43:24.950Z,46.09
2018-09-18T10:45:53.510Z,46.09
2018-09-18T10:48:22.027Z,45.43
2018-09-18T10:50:51.370Z,46.07
2018-09-18T10:53:20.025Z,45.47
2018-09-18T10:55:48.561Z,46.05
2018-09-18T10:58:17.080Z,46.19
2018-09-18T11:00:46.314Z,45.34
2018-09-18T11:03:15.261Z,44.87
2018-09-18T11:05:44.818Z,45.19
2018-09-18T11:08:15.803Z,45.32
2018-09-18T11:10:44.418Z,45.87
2018-09-18T11:13:13.895Z,45.66
2018-09-18T11:15:43.627Z,45.56
2018-09-18T11:18:13.104Z,46.17
2018-09-18T11:20:42.369Z,46.29
2018-09-18T11:23:11.794Z,45.65
2018-09-18T11:25:40.608Z,45.04
2018-09-18T11:28:12.383Z,45.25
2018-09-18T11:30:42.416Z,45.72
2018-09-18T11:33:12.346Z,45.19
2018-09-18T11:35:40.878Z,44.05
2018-09-18T11:38:09.626Z,43.66
2018-09-18T11:40:38.200Z,43.70
2018-09-18T11:43:06.790Z,43.48
2018-09-18T11:45:36.094Z,42.50
2018-09-18T11:48:04.596Z,43.12
2018-09-18T11:50:33.146Z,42.66
2018-09-18T11:53:01.926Z,43.66
2018-09-18T11:55:30.450Z,42.49
2018-09-18T11:57:59.533Z,43.49
2018-09-18T12:00:28.217Z,42.99
2018-09-18T12:02:56.863Z,42.54
2018-09-18T12:05:25.346Z,42.19
2018-09-18T12:07:53.910Z,41.80
2018-09-18T12:10:23.086Z,41.14
2018-09-18T12:12:51.607Z,40.68
2018-09-18T12:15:20.159Z,40.80
2018-09-18T12:17:49.452Z,40.25
2018-09-18T12:20:18.307Z,39.63
2018-09-18T12:22:46.898Z,38.90
2018-09-18T12:25:15.412Z,38.88
2018-09-18T12:27:44.058Z,38.07
2018-09-18T12:30:12.527Z,36.80
2018-09-18T12:32:41.081Z,37.65
2018-09-18T12:35:09.593Z,37.62
2018-09-18T12:37:38.127Z,37.60
2018-09-18T12:40:06.735Z,37.63
2018-09-18T12:42:35.372Z,37.61
2018-09-18T12:45:03.888Z,37.45
2018-09-18T12:47:32.386Z,37.50
2018-09-18T12:50:01.067Z,37.40
2018-09-18T12:52:29.445Z,37.30
2018-09-18T12:54:58.178Z,37.16
2018-09-18T12:57:26.854Z,37.62
2018-09-18T12:59:55.259Z,37.23
2018-09-18T13:02:23.909Z,37.84
2018-09-18T13:04:52.371Z,37.50
2018-09-18T13:07:20.931Z,37.60
2018-09-18T13:09:49.509Z,37.62
2018-09-18T13:12:17.989Z,37.29
2018-09-18T13:14:46.599Z,36.58
2018-09-18T13:17:15.237Z,36.74
2018-09-18T13:19:44.629Z,36.83
2018-09-18T13:22:13.126Z,37.22
2018-09-18T13:24:41.626Z,36.94
2018-09-18T13:27:10.186Z,36.95
2018-09-18T13:29:38.733Z,36.97
2018-09-18T13:32:07.507Z,35.62
2018-09-18T13:34:36.071Z,35.61
2018-09-18T13:37:04.711Z,36.26
2018-09-18T13:39:33.376Z,36.11
2018-09-18T13:42:02.261Z,36.42
2018-09-18T13:44:31.066Z,36.69
2018-09-18T13:46:59.550Z,35.99
2018-09-18T13:49:28.662Z,36.77
2018-09-18T13:51:57.272Z,35.79
2018-09-18T13:54:25.874Z,35.65
2018-09-18T13:56:54.427Z,35.80
2018-09-18T13:59:23.025Z,36.14
2018-09-18T14:01:51.646Z,36.60
2018-09-18T14:04:20.161Z,36.21
2018-09-18T14:06:48.696Z,36.48
2018-09-18T14:09:17.296Z,36.33
2018-09-18T14:11:45.806Z,36.18
2018-09-18T14:14:14.322Z,35.43
2018-09-18T14:16:42.853Z,35.22
2018-09-18T14:19:11.403Z,35.67
2018-09-18T14:21:39.993Z,36.29
2018-09-18T14:24:08.546Z,36.42
2018-09-18T14:26:37.209Z,36.44
2018-09-18T14:29:05.649Z,36.10
2018-09-18T14:31:34.217Z,35.72
2018-09-18T14:34:02.807Z,34.55
2018-09-18T14:36:31.335Z,34.98
2018-09-18T14:39:00.085Z,35.08
2018-09-18T14:41:28.573Z,35.62
2018-09-18T14:43:57.122Z,35.47
2018-09-18T14:46:25.651Z,36.70
2018-09-18T14:48:54.306Z,35.37
2018-09-18T14:51:22.998Z,35.28
2018-09-18T14:53:51.751Z,35.10
2018-09-18T14:56:20.323Z,35.51
2018-09-18T14:58:48.963Z,35.46
2018-09-18T15:01:17.615Z,35.31
2018-09-18T15:03:46.220Z,35.90
2018-09-18T15:06:14.748Z,35.72
2018-09-18T15:08:43.266Z,36.57
2018-09-18T15:11:11.851Z,35.91
2018-09-18T15:13:40.355Z,37.05
2018-09-18T15:16:08.867Z,35.95
2018-09-18T15:18:37.454Z,35.97
2018-09-18T15:21:06.000Z,37.38
2018-09-18T15:23:34.491Z,36.39
2018-09-18T15:26:02.997Z,37.22
2018-09-18T15:28:31.510Z,37.47
2018-09-18T15:31:00.041Z,37.70
2018-09-18T15:33:28.696Z,38.00
2018-09-18T15:35:57.202Z,36.12
2018-09-18T15:38:25.718Z,37.50
2018-09-18T15:40:54.293Z,36.61
2018-09-18T15:43:22.834Z,36.33
2018-09-18T15:48:24.805Z,36.67
2018-09-18T15:50:53.269Z,37.48
2018-09-18T15:53:21.839Z,37.35
2018-09-18T15:55:51.415Z,39.04
2018-09-18T15:58:20.695Z,38.54
2018-09-18T16:00:49.465Z,39.51
2018-09-18T16:03:17.994Z,38.31
2018-09-18T16:05:46.621Z,38.56
2018-09-18T16:08:15.140Z,39.49
2018-09-18T16:10:44.323Z,40.22
2018-09-18T16:13:13.155Z,40.33
2018-09-18T16:15:42.478Z,39.73
2018-09-18T16:18:11.083Z,41.34
2018-09-18T16:20:39.606Z,41.07
2018-09-18T16:23:08.862Z,40.15
2018-09-18T16:25:37.395Z,40.87
2018-09-18T16:28:06.271Z,41.05
2018-09-18T16:30:34.884Z,42.06
2018-09-18T16:33:03.947Z,42.33
2018-09-18T16:35:32.490Z,43.24
2018-09-18T16:38:01.137Z,42.29
2018-09-18T16:40:29.787Z,43.08
2018-09-18T16:42:58.861Z,43.70
2018-09-18T16:45:27.453Z,44.33
2018-09-18T16:47:55.986Z,45.39
2018-09-18T16:50:24.504Z,46.17
2018-09-18T16:52:53.039Z,46.66
2018-09-18T16:55:21.673Z,47.08
2018-09-18T16:57:50.326Z,47.08
2018-09-18T17:00:21.254Z,48.17
2018-09-18T17:02:49.851Z,48.75
2018-09-18T17:05:19.021Z,49.29
2018-09-18T17:07:47.597Z,49.52
2018-09-18T17:10:16.170Z,49.26
2018-09-18T17:12:44.700Z,49.87
2018-09-18T17:15:13.291Z,50.98
2018-09-18T17:17:42.544Z,51.73
2018-09-18T17:20:11.091Z,51.63
2018-09-18T17:22:39.652Z,51.64
2018-09-18T17:25:08.590Z,52.79
2018-09-18T17:27:37.534Z,53.01
2018-09-18T17:30:06.327Z,53.03
2018-09-18T17:32:35.707Z,53.15
2018-09-18T17:35:04.769Z,53.97
2018-09-18T17:37:34.447Z,54.32
2018-09-18T17:40:03.258Z,55.22
2018-09-18T17:42:31.823Z,55.20
2018-09-18T17:45:01.274Z,56.09
2018-09-18T17:47:29.882Z,56.13
2018-09-18T17:49:58.717Z,56.40
2018-09-18T17:52:27.205Z,56.21
2018-09-18T17:54:55.788Z,57.22
2018-09-18T17:57:24.279Z,57.78
2018-09-18T17:59:52.846Z,57.19
2018-09-18T18:02:22.042Z,57.99
2018-09-18T18:04:50.521Z,58.57
2018-09-18T18:07:19.081Z,58.46
2018-09-18T18:09:47.650Z,57.81
2018-09-18T18:12:16.816Z,58.25
2018-09-18T18:14:45.314Z,58.33
2018-09-18T18:17:13.831Z,59.29
2018-09-18T18:19:42.333Z,59.39
2018-09-18T18:22:10.988Z,59.13
2018-09-18T18:24:39.499Z,59.52
2018-09-18T18:27:08.098Z,59.54
2018-09-18T18:29:37.662Z,59.91
2018-09-18T18:32:06.767Z,60.00
2018-09-18T18:34:35.419Z,60.72
2018-09-18T18:37:03.979Z,60.86
2018-09-18T18:39:32.524Z,61.62
2018-09-18T18:42:01.054Z,61.24
2018-09-18T18:44:31.256Z,61.80
2018-09-18T18:46:59.755Z,61.91
2018-09-18T18:49:32.430Z,61.96
2018-09-18T18:52:00.966Z,62.55
2018-09-18T18:54:29.561Z,62.81
2018-09-18T18:56:58.154Z,63.05
2018-09-18T18:59:27.423Z,63.39
2018-09-18T19:01:55.975Z,63.26
2018-09-18T19:04:24.497Z,62.90
2018-09-18T19:06:53.415Z,63.16
2018-09-18T19:09:21.979Z,63.43
2018-09-18T19:11:51.586Z,64.14
2018-09-18T19:14:20.224Z,63.62
2018-09-18T19:16:48.854Z,64.42
2018-09-18T19:19:17.587Z,64.60
2018-09-18T19:21:46.171Z,65.74
2018-09-18T19:24:14.820Z,65.49
2018-09-18T19:26:43.347Z,66.28
2018-09-18T19:29:11.909Z,66.41
2018-09-18T19:31:41.185Z,67.33
2018-09-18T19:34:09.699Z,68.00
2018-09-18T19:36:38.229Z,68.01
2018-09-18T19:39:09.284Z,67.71
2018-09-18T19:41:37.912Z,68.44
2018-09-18T19:44:06.641Z,69.11
2018-09-18T19:46:35.248Z,69.04
2018-09-18T19:49:03.915Z,69.68
2018-09-18T19:51:32.808Z,70.35
2018-09-18T19:54:01.319Z,70.18
2018-09-18T19:56:31.328Z,71.37
2018-09-18T19:58:59.943Z,71.04
2018-09-18T20:01:28.520Z,71.81
2018-09-18T20:03:57.249Z,71.69
2018-09-18T20:06:25.860Z,72.24
2018-09-18T20:08:55.399Z,71.89
2018-09-18T20:11:23.989Z,72.28
2018-09-18T20:13:53.247Z,72.29
2018-09-18T20:16:21.788Z,72.90
2018-09-18T20:18:50.330Z,73.44
2018-09-18T20:21:18.908Z,73.89
2018-09-18T20:23:47.439Z,73.75
2018-09-18T20:26:15.934Z,74.57
2018-09-18T20:28:44.587Z,73.93
2018-09-18T20:31:13.193Z,74.15
2018-09-18T20:33:42.462Z,75.05
2018-09-18T20:36:11.158Z,74.06
2018-09-18T20:38:39.649Z,74.76
2018-09-18T20:41:08.256Z,74.90
2018-09-18T20:43:37.362Z,75.23
2018-09-18T20:46:05.919Z,74.92
2018-09-18T20:48:34.503Z,75.35
2018-09-18T20:51:03.970Z,76.15
2018-09-18T20:53:32.495Z,76.11
2018-09-18T20:56:01.946Z,75.14
2018-09-18T20:58:30.451Z,75.68
2018-09-18T21:00:59.321Z,75.57
2018-09-18T21:03:27.939Z,75.66
2018-09-18T21:05:56.510Z,76.09
2018-09-18T21:08:25.081Z,75.53
2018-09-18T21:10:53.724Z,75.45
2018-09-18T21:13:22.270Z,75.62
2018-09-18T21:15:50.808Z,75.46
2018-09-18T21:18:19.356Z,74.47
2018-09-18T21:20:48.307Z,74.22
2018-09-18T21:23:16.918Z,74.72
2018-09-18T21:26:17.520Z,75.17
2018-09-18T21:28:46.044Z,75.71
2018-09-18T21:31:14.606Z,74.47
2018-09-18T21:33:43.471Z,75.11
2018-09-18T21:36:12.085Z,75.12
2018-09-18T21:38:41.259Z,75.87
2018-09-18T21:41:09.838Z,75.55
2018-09-18T21:43:38.739Z,76.01
2018-09-18T21:46:08.137Z,75.56
2018-09-18T21:48:38.094Z,75.78
2018-09-18T21:51:07.246Z,75.10
2018-09-18T21:53:36.284Z,75.67
2018-09-18T21:56:04.823Z,75.31
2018-09-18T21:58:33.497Z,75.41
2018-09-18T22:01:04.507Z,76.00
2018-09-18T22:03:33.519Z,75.21
2018-09-18T22:06:02.633Z,75.88
2018-09-18T22:08:31.233Z,75.47
2018-09-18T22:10:59.749Z,75.79
2018-09-18T22:13:28.270Z,75.32
2018-09-18T22:15:56.825Z,75.49
2018-09-18T22:18:25.429Z,75.66
2018-09-18T22:20:53.964Z,76.14
2018-09-18T22:23:22.665Z,76.24
2018-09-18T22:25:51.206Z,76.31
2018-09-18T22:28:19.739Z,77.01
2018-09-18T22:30:48.271Z,76.88
2018-09-18T22:33:17.894Z,75.91
2018-09-18T22:35:46.465Z,76.22
2018-09-18T22:38:15.579Z,77.72
2018-09-18T22:40:45.051Z,76.71
2018-09-18T22:43:13.710Z,76.86
2018-09-18T22:45:42.663Z,76.33
2018-09-18T22:48:11.162Z,76.90
2018-09-18T22:50:39.668Z,77.11
2018-09-18T22:53:08.227Z,77.33
2018-09-18T22:55:36.754Z,77.41
2018-09-18T22:58:05.374Z,77.97
2018-09-18T23:00:33.920Z,77.02
2018-09-18T23:03:02.606Z,76.73
2018-09-18T23:05:31.099Z,76.65
2018-09-18T23:07:59.650Z,77.02
2018-09-18T23:10:28.137Z,76.72
2018-09-18T23:12:57.218Z,77.03
2018-09-18T23:15:25.765Z,77.21
2018-09-18T23:17:54.285Z,77.80
2018-09-18T23:20:22.809Z,77.45
2018-09-18T23:22:51.386Z,76.68
2018-09-18T23:25:19.893Z,76.24
2018-09-18T23:27:49.101Z,76.33
2018-09-18T23:30:17.706Z,76.46
2018-09-18T23:32:46.187Z,77.07
2018-09-18T23:35:14.864Z,77.45
2018-09-18T23:37:43.395Z,78.03
2018-09-18T23:40:12.018Z,77.71
2018-09-18T23:42:40.518Z,77.58
2018-09-18T23:45:09.083Z,77.31
2018-09-18T23:47:37.604Z,77.46
2018-09-18T23:50:06.282Z,77.52
2018-09-18T23:52:34.852Z,78.25
2018-09-18T23:55:03.375Z,78.07
2018-09-18T23:57:32.653Z,77.75
